createdAt,value
2022-08-15T00:00:26.596Z,22.99
2022-08-15T00:02:54.351Z,22.96
2022-08-15T00:05:27.715Z,22.95
2022-08-15T00:07:55.500Z,22.92
2022-08-15T00:10:59.861Z,22.89
2022-08-15T00:13:23.149Z,22.86
2022-08-15T00:15:52.701Z,22.84
2022-08-15T00:18:20.783Z,22.82
2022-08-15T00:20:50.191Z,22.78
2022-08-15T00:23:24.313Z,22.80
2022-08-15T00:25:57.752Z,22.77
2022-08-15T00:28:36.156Z,22.78
2022-08-15T00:31:11.209Z,22.77
2022-08-15T00:33:39.679Z,22.79
2022-08-15T00:36:53.009Z,22.84
2022-08-15T00:38:55.892Z,22.79
2022-08-15T00:41:41.637Z,22.75
2022-08-15T00:44:17.008Z,22.70
2022-08-15T00:46:51.712Z,22.63
2022-08-15T00:49:18.693Z,22.61
2022-08-15T00:51:55.363Z,22.60
2022-08-15T00:54:55.624Z,22.57
2022-08-15T00:57:58.718Z,22.56
2022-08-15T01:00:21.474Z,22.56
2022-08-15T01:03:14.571Z,22.55
2022-08-15T01:05:48.976Z,22.56
2022-08-15T01:08:27.764Z,22.58
2022-08-15T01:11:03.153Z,22.61
2022-08-15T01:14:02.804Z,22.63
2022-08-15T01:16:33.987Z,22.66
2022-08-15T01:19:10.631Z,22.66
2022-08-15T01:22:06.286Z,22.70
2022-08-15T01:25:16.940Z,22.76
2022-08-15T01:27:39.854Z,22.74
2022-08-15T01:30:39.752Z,22.80
2022-08-15T01:32:59.975Z,22.84
2022-08-15T01:35:28.095Z,22.85
2022-08-15T01:37:58.479Z,22.84
2022-08-15T01:40:53.808Z,22.89
2022-08-15T01:43:26.026Z,22.87
2022-08-15T01:46:00.537Z,22.93
2022-08-15T01:48:42.387Z,22.91
2022-08-15T01:51:11.537Z,22.98
2022-08-15T01:53:58.531Z,23.02
2022-08-15T01:56:36.232Z,23.05
2022-08-15T01:59:08.321Z,23.09
2022-08-15T02:01:47.188Z,23.11
2022-08-15T02:04:29.363Z,23.11
2022-08-15T02:06:58.913Z,23.10
2022-08-15T02:09:38.836Z,23.17
2022-08-15T02:13:03.589Z,23.18
2022-08-15T02:15:16.250Z,23.20
2022-08-15T02:17:45.575Z,23.21
2022-08-15T02:20:23.665Z,23.21
2022-08-15T02:22:52.663Z,23.23
2022-08-15T02:25:22.769Z,23.26
2022-08-15T02:27:54.314Z,23.27
2022-08-15T02:30:30.563Z,23.28
2022-08-15T02:33:00.611Z,23.27
2022-08-15T02:35:28.834Z,23.27
2022-08-15T02:37:58.051Z,23.28
2022-08-15T02:40:44.514Z,23.28
2022-08-15T02:43:16.374Z,23.25
2022-08-15T02:45:57.362Z,23.23
2022-08-15T02:48:41.854Z,23.19
2022-08-15T02:51:26.021Z,23.19
2022-08-15T02:53:55.399Z,23.18
2022-08-15T02:56:30.727Z,23.15
2022-08-15T02:58:59.244Z,23.15
2022-08-15T03:01:33.801Z,23.14
2022-08-15T03:04:28.866Z,23.13
2022-08-15T03:06:58.746Z,23.17
2022-08-15T03:09:32.281Z,23.17
2022-08-15T03:12:21.754Z,23.19
2022-08-15T03:14:57.398Z,23.18
2022-08-15T03:17:28.402Z,23.19
2022-08-15T03:19:58.846Z,23.19
2022-08-15T03:22:45.939Z,23.17
2022-08-15T03:25:29.337Z,23.11
2022-08-15T03:27:58.953Z,23.08
2022-08-15T03:30:25.625Z,23.08
2022-08-15T03:32:57.264Z,23.05
2022-08-15T03:35:30.210Z,23.02
2022-08-15T03:38:05.672Z,23.01
2022-08-15T03:40:36.637Z,22.98
2022-08-15T03:43:38.384Z,22.96
2022-08-15T03:46:10.762Z,22.95
2022-08-15T03:48:58.156Z,22.87
2022-08-15T03:51:31.371Z,22.88
2022-08-15T03:54:02.345Z,22.84
2022-08-15T03:56:33.682Z,22.80
2022-08-15T03:59:03.472Z,22.78
2022-08-15T04:01:34.197Z,22.75
2022-08-15T04:04:03.661Z,22.70
2022-08-15T04:06:39.335Z,22.71
2022-08-15T04:09:13.638Z,22.69
2022-08-15T04:11:46.065Z,22.63
2022-08-15T04:14:31.799Z,22.64
2022-08-15T04:17:12.416Z,22.66
2022-08-15T04:19:47.931Z,22.66
2022-08-15T04:22:39.070Z,22.65
2022-08-15T04:25:20.849Z,22.66
2022-08-15T04:27:54.505Z,22.65
2022-08-15T04:30:27.505Z,22.64
2022-08-15T04:32:59.519Z,22.63
2022-08-15T04:35:51.065Z,22.61
2022-08-15T04:38:18.968Z,22.67
2022-08-15T04:41:18.905Z,22.66
2022-08-15T04:43:39.402Z,22.67
2022-08-15T04:46:12.318Z,22.65
2022-08-15T04:48:55.068Z,22.66
2022-08-15T04:51:34.531Z,22.69
2022-08-15T04:54:04.581Z,22.67
2022-08-15T04:56:47.980Z,22.72
2022-08-15T04:59:36.405Z,22.63
2022-08-15T05:02:55.878Z,22.71
2022-08-15T05:05:12.147Z,22.73
2022-08-15T05:07:38.726Z,22.81
2022-08-15T05:10:33.318Z,22.80
2022-08-15T05:13:18.724Z,22.75
2022-08-15T05:15:53.432Z,22.78
2022-08-15T05:18:24.032Z,22.76
2022-08-15T05:20:52.318Z,22.70
2022-08-15T05:23:34.373Z,22.63
2022-08-15T05:26:52.766Z,22.66
2022-08-15T05:29:00.661Z,22.65
2022-08-15T05:31:32.365Z,22.60
2022-08-15T05:34:02.294Z,22.65
2022-08-15T05:36:36.240Z,22.65
2022-08-15T05:39:25.543Z,22.64
2022-08-15T05:42:12.079Z,22.65
2022-08-15T05:44:47.904Z,22.68
2022-08-15T05:47:34.821Z,22.66
2022-08-15T05:50:33.147Z,22.61
2022-08-15T05:53:30.810Z,22.62
2022-08-15T05:56:25.993Z,22.58
2022-08-15T05:59:02.722Z,22.50
2022-08-15T06:01:41.903Z,22.48
2022-08-15T06:04:44.785Z,22.53
2022-08-15T06:07:15.145Z,22.54
2022-08-15T06:09:47.521Z,22.54
2022-08-15T06:12:31.174Z,22.55
2022-08-15T06:15:17.829Z,22.55
2022-08-15T06:17:58.490Z,22.55
2022-08-15T06:21:14.343Z,22.54
2022-08-15T06:23:55.868Z,22.57
2022-08-15T06:26:41.072Z,22.57
2022-08-15T06:30:01.856Z,22.50
2022-08-15T06:32:52.874Z,22.48
2022-08-15T06:35:31.021Z,22.48
2022-08-15T06:38:36.727Z,22.47
2022-08-15T06:41:29.795Z,22.40
2022-08-15T06:44:08.062Z,22.36
2022-08-15T06:46:50.591Z,22.34
2022-08-15T06:49:23.795Z,22.33
2022-08-15T06:51:51.942Z,22.33
2022-08-15T06:54:37.002Z,22.39
2022-08-15T06:57:46.754Z,22.45
2022-08-15T07:00:36.561Z,22.47
2022-08-15T07:03:25.613Z,22.46
2022-08-15T07:08:49.264Z,22.43
2022-08-15T07:11:23.575Z,22.47
2022-08-15T07:14:21.032Z,22.48
2022-08-15T07:17:15.936Z,22.51
2022-08-15T07:19:56.659Z,22.52
2022-08-15T07:22:40.349Z,22.63
2022-08-15T07:25:25.698Z,22.68
2022-08-15T07:28:05.507Z,22.71
2022-08-15T07:30:57.955Z,22.78
2022-08-15T07:33:44.059Z,22.83
2022-08-15T07:36:30.016Z,22.89
2022-08-15T07:38:58.664Z,23.00
2022-08-15T07:41:54.175Z,23.15
2022-08-15T07:44:32.020Z,23.28
2022-08-15T07:47:12.401Z,23.44
2022-08-15T07:49:39.067Z,23.60
2022-08-15T07:52:07.325Z,23.73
2022-08-15T07:54:50.190Z,23.92
2022-08-15T07:57:51.188Z,24.08
2022-08-15T08:00:45.470Z,24.25
2022-08-15T08:03:34.244Z,24.71
2022-08-15T08:06:34.552Z,25.12
2022-08-15T08:09:26.075Z,25.26
2022-08-15T08:11:58.398Z,25.32
2022-08-15T08:14:45.773Z,25.46
2022-08-15T08:17:19.417Z,25.67
2022-08-15T08:20:05.716Z,25.79
2022-08-15T08:22:44.379Z,25.94
2022-08-15T08:26:03.641Z,26.40
2022-08-15T08:28:57.495Z,27.05
2022-08-15T08:31:33.326Z,27.50
2022-08-15T08:34:48.296Z,28.05
2022-08-15T08:37:37.697Z,28.70
2022-08-15T08:40:37.314Z,29.24
2022-08-15T08:43:26.340Z,29.67
2022-08-15T08:46:29.269Z,30.05
2022-08-15T08:50:32.244Z,30.50
2022-08-15T08:52:26.929Z,30.85
2022-08-15T08:55:17.569Z,30.87
2022-08-15T08:58:09.838Z,31.06
2022-08-15T09:00:46.474Z,31.11
2022-08-15T09:03:28.277Z,31.17
2022-08-15T09:05:57.846Z,31.25
2022-08-15T09:08:33.978Z,31.39
2022-08-15T09:11:07.630Z,31.49
2022-08-15T09:13:37.850Z,31.60
2022-08-15T09:16:20.558Z,31.57
2022-08-15T09:19:20.441Z,31.38
2022-08-15T09:21:48.228Z,31.68
2022-08-15T09:24:37.930Z,31.73
2022-08-15T09:27:20.855Z,32.13
2022-08-15T09:30:33.633Z,32.27
2022-08-15T09:33:09.565Z,32.75
2022-08-15T09:36:04.971Z,32.93
2022-08-15T09:39:09.372Z,33.16
2022-08-15T09:42:35.869Z,33.54
2022-08-15T09:45:13.347Z,33.75
2022-08-15T09:47:58.732Z,34.00
2022-08-15T09:50:54.392Z,34.00
2022-08-15T09:53:52.721Z,34.21
2022-08-15T09:56:31.703Z,34.41
2022-08-15T09:59:06.135Z,34.27
2022-08-15T10:01:55.521Z,34.42
2022-08-15T10:04:41.889Z,34.56
2022-08-15T10:07:10.849Z,34.73
2022-08-15T10:09:44.718Z,34.63
2022-08-15T10:12:23.334Z,34.45
2022-08-15T10:14:54.624Z,34.54
2022-08-15T10:17:38.429Z,34.75
2022-08-15T10:20:19.505Z,34.62
2022-08-15T10:23:01.882Z,34.28
2022-08-15T10:25:30.977Z,34.13
2022-08-15T10:28:38.978Z,34.05
2022-08-15T10:31:02.572Z,33.66
2022-08-15T10:33:37.697Z,33.20
2022-08-15T10:36:29.659Z,32.86
2022-08-15T10:39:19.019Z,32.37
2022-08-15T10:41:55.526Z,32.35
2022-08-15T10:44:51.861Z,32.55
2022-08-15T10:47:44.062Z,32.68
2022-08-15T10:50:51.919Z,32.67
2022-08-15T10:53:29.802Z,32.92
2022-08-15T10:57:05.271Z,33.34
2022-08-15T10:59:14.586Z,33.62
2022-08-15T11:01:45.152Z,33.49
2022-08-15T11:04:49.679Z,33.23
2022-08-15T11:07:37.869Z,32.93
2022-08-15T11:10:21.549Z,32.68
2022-08-15T11:12:55.810Z,32.40
2022-08-15T11:15:27.309Z,32.39
2022-08-15T11:18:20.115Z,32.45
2022-08-15T11:20:56.946Z,32.50
2022-08-15T11:23:58.691Z,32.47
2022-08-15T11:26:29.267Z,32.56
2022-08-15T11:29:08.277Z,32.61
2022-08-15T11:31:48.284Z,32.65
2022-08-15T11:34:42.745Z,32.66
2022-08-15T11:37:20.068Z,32.64
2022-08-15T11:39:59.391Z,32.63
2022-08-15T11:42:30.641Z,32.69
2022-08-15T11:45:05.914Z,32.62
2022-08-15T11:47:35.845Z,32.47
2022-08-15T11:50:09.353Z,32.24
2022-08-15T11:52:50.543Z,32.06
2022-08-15T11:55:32.025Z,31.82
2022-08-15T11:58:14.029Z,31.69
2022-08-15T12:00:45.349Z,31.63
2022-08-15T12:06:50.732Z,31.71
2022-08-15T12:09:42.706Z,31.90
2022-08-15T12:12:50.191Z,32.20
2022-08-15T12:13:17.573Z,31.64
2022-08-15T12:15:55.343Z,32.50
2022-08-15T12:18:32.011Z,32.66
2022-08-15T12:21:03.781Z,32.44
2022-08-15T12:23:34.181Z,32.29
2022-08-15T12:26:38.858Z,32.46
2022-08-15T12:28:56.220Z,32.89
2022-08-15T12:31:32.145Z,33.47
2022-08-15T12:34:26.616Z,33.96
2022-08-15T12:37:03.221Z,34.39
2022-08-15T12:39:33.099Z,34.63
2022-08-15T12:42:54.772Z,34.68
2022-08-15T12:44:48.887Z,34.62
2022-08-15T12:47:16.391Z,34.94
2022-08-15T12:49:47.037Z,35.13
2022-08-15T12:52:18.403Z,35.26
2022-08-15T12:54:48.290Z,35.32
2022-08-15T12:57:19.191Z,35.38
2022-08-15T12:59:49.381Z,35.39
2022-08-15T13:02:47.543Z,35.50
2022-08-15T13:05:14.420Z,35.63
2022-08-15T13:08:06.508Z,35.67
2022-08-15T13:10:56.122Z,35.54
2022-08-15T13:13:15.598Z,35.61
2022-08-15T13:15:42.335Z,35.68
2022-08-15T13:18:23.161Z,35.65
2022-08-15T13:21:09.348Z,35.42
2022-08-15T13:23:42.679Z,35.26
2022-08-15T13:26:30.860Z,35.21
2022-08-15T13:29:01.242Z,35.14
2022-08-15T13:31:28.283Z,35.12
2022-08-15T13:33:54.773Z,35.08
2022-08-15T13:36:30.750Z,34.81
2022-08-15T13:39:14.163Z,34.63
2022-08-15T13:42:04.361Z,34.33
2022-08-15T13:44:37.418Z,34.28
2022-08-15T13:47:09.378Z,34.25
2022-08-15T13:49:42.141Z,34.19
2022-08-15T13:52:45.591Z,33.82
2022-08-15T13:54:59.610Z,33.28
2022-08-15T13:57:28.914Z,33.11
2022-08-15T13:59:57.375Z,32.90
2022-08-15T14:02:33.001Z,32.75
2022-08-15T14:05:06.987Z,32.85
2022-08-15T14:07:50.710Z,32.97
2022-08-15T14:10:59.902Z,33.13
2022-08-15T14:13:12.765Z,33.28
2022-08-15T14:16:08.286Z,33.28
2022-08-15T14:18:49.632Z,33.29
2022-08-15T14:21:17.693Z,33.38
2022-08-15T14:23:53.973Z,33.51
2022-08-15T14:27:08.447Z,33.55
2022-08-15T14:29:17.813Z,33.67
2022-08-15T14:31:58.637Z,33.65
2022-08-15T14:34:55.396Z,33.40
2022-08-15T14:37:17.706Z,33.22
2022-08-15T14:39:50.169Z,32.90
2022-08-15T14:42:30.344Z,32.52
2022-08-15T14:45:00.274Z,32.33
2022-08-15T14:47:29.575Z,32.19
2022-08-15T14:50:52.425Z,32.05
2022-08-15T14:52:53.201Z,31.89
2022-08-15T14:55:20.301Z,31.70
2022-08-15T14:57:59.068Z,31.58
2022-08-15T15:00:31.441Z,31.46
2022-08-15T15:03:03.476Z,31.37
2022-08-15T15:06:05.148Z,31.26
2022-08-15T15:08:20.356Z,31.18
2022-08-15T15:10:47.798Z,31.22
2022-08-15T15:13:16.563Z,31.34
2022-08-15T15:16:06.957Z,31.28
2022-08-15T15:18:45.712Z,31.38
2022-08-15T15:21:20.740Z,31.52
2022-08-15T15:23:51.793Z,31.50
2022-08-15T15:26:37.404Z,31.32
2022-08-15T15:29:10.886Z,31.11
2022-08-15T15:31:41.720Z,30.95
2022-08-15T15:34:15.125Z,30.80
2022-08-15T15:36:46.435Z,30.67
2022-08-15T15:39:17.213Z,30.60
2022-08-15T15:41:46.732Z,30.50
2022-08-15T15:44:19.032Z,30.46
2022-08-15T15:46:47.046Z,30.41
2022-08-15T15:49:23.701Z,30.42
2022-08-15T15:51:55.669Z,30.45
2022-08-15T15:54:35.700Z,30.51
2022-08-15T15:57:08.844Z,30.55
2022-08-15T15:59:58.967Z,30.58
2022-08-15T16:02:45.897Z,30.76
2022-08-15T16:05:16.611Z,30.80
2022-08-15T16:07:56.017Z,30.89
2022-08-15T16:10:39.044Z,30.93
2022-08-15T16:13:13.880Z,30.91
2022-08-15T16:16:12.105Z,30.89
2022-08-15T16:18:54.791Z,30.84
2022-08-15T16:21:59.018Z,30.71
2022-08-15T16:24:32.765Z,30.63
2022-08-15T16:27:25.241Z,30.54
2022-08-15T16:30:03.718Z,30.55
2022-08-15T16:32:40.306Z,30.55
2022-08-15T16:35:25.154Z,30.49
2022-08-15T16:37:56.949Z,30.47
2022-08-15T16:40:59.551Z,30.35
2022-08-15T16:43:24.446Z,30.27
2022-08-15T16:46:23.708Z,30.16
2022-08-15T16:49:23.339Z,30.09
2022-08-15T16:52:15.475Z,29.94
2022-08-15T16:54:59.029Z,29.78
2022-08-15T16:57:49.605Z,29.66
2022-08-15T17:00:44.475Z,29.54
2022-08-15T17:03:44.849Z,29.29
2022-08-15T17:06:25.269Z,28.97
2022-08-15T17:09:53.682Z,28.50
2022-08-15T17:12:24.208Z,27.90
2022-08-15T17:15:32.589Z,27.39
2022-08-15T17:18:20.351Z,27.11
2022-08-15T17:20:58.607Z,26.85
2022-08-15T17:24:00.372Z,26.72
2022-08-15T17:26:58.474Z,26.58
2022-08-15T17:29:41.929Z,26.40
2022-08-15T17:32:30.487Z,26.31
2022-08-15T17:35:00.537Z,26.28
2022-08-15T17:37:27.278Z,26.18
2022-08-15T17:40:04.070Z,26.17
2022-08-15T17:42:39.689Z,26.07
2022-08-15T17:45:38.411Z,25.99
2022-08-15T17:48:33.344Z,25.90
2022-08-15T17:51:11.744Z,25.84
2022-08-15T17:53:54.357Z,25.82
2022-08-15T17:56:30.731Z,25.77
2022-08-15T17:59:10.071Z,25.71
2022-08-15T18:01:38.131Z,25.66
2022-08-15T18:04:07.646Z,25.56
2022-08-15T18:06:35.247Z,25.45
2022-08-15T18:09:07.236Z,25.47
2022-08-15T18:12:01.417Z,25.26
2022-08-15T18:14:40.209Z,25.10
2022-08-15T18:17:32.306Z,25.04
2022-08-15T18:20:02.046Z,24.97
2022-08-15T18:22:31.023Z,24.94
2022-08-15T18:25:01.664Z,24.82
2022-08-15T18:27:37.586Z,24.85
2022-08-15T18:30:27.079Z,24.85
2022-08-15T18:33:16.514Z,24.85
2022-08-15T18:35:46.326Z,24.85
2022-08-15T18:38:16.565Z,24.82
2022-08-15T18:41:14.212Z,24.77
2022-08-15T18:43:43.343Z,24.69
2022-08-15T18:46:20.083Z,24.67
2022-08-15T18:48:58.122Z,24.66
2022-08-15T18:51:28.359Z,24.59
2022-08-15T18:54:46.879Z,24.58
2022-08-15T18:57:27.322Z,24.54
2022-08-15T19:00:34.119Z,24.53
2022-08-15T19:03:05.685Z,24.38
2022-08-15T19:05:43.862Z,24.29
2022-08-15T19:08:26.552Z,24.28
2022-08-15T19:10:57.315Z,24.12
2022-08-15T19:13:43.209Z,24.15
2022-08-15T19:16:29.390Z,24.11
2022-08-15T19:19:06.095Z,24.07
2022-08-15T19:21:33.629Z,24.03
2022-08-15T19:24:01.416Z,23.99
2022-08-15T19:26:43.186Z,23.96
2022-08-15T19:29:27.501Z,23.94
2022-08-15T19:32:30.999Z,23.92
2022-08-15T19:35:16.475Z,23.86
2022-08-15T19:38:18.249Z,23.84
2022-08-15T19:41:09.394Z,23.62
2022-08-15T19:43:55.793Z,23.55
2022-08-15T19:46:59.828Z,23.45
2022-08-15T19:50:05.825Z,23.44
2022-08-15T19:52:49.155Z,23.38
2022-08-15T19:55:42.514Z,23.34
2022-08-15T19:58:41.861Z,23.30
2022-08-15T20:01:48.151Z,23.24
2022-08-15T20:04:44.153Z,23.18
2022-08-15T20:07:24.278Z,23.20
2022-08-15T20:10:13.761Z,23.18
2022-08-15T20:12:59.527Z,23.15
2022-08-15T20:15:41.315Z,23.10
2022-08-15T20:18:28.614Z,23.11
2022-08-15T20:21:13.739Z,23.13
2022-08-15T20:23:55.446Z,23.09
2022-08-15T20:26:35.380Z,23.01
2022-08-15T20:29:32.106Z,23.00
2022-08-15T20:32:23.902Z,23.00
2022-08-15T20:35:17.762Z,23.01
2022-08-15T20:38:07.259Z,22.95
2022-08-15T20:40:52.661Z,22.95
2022-08-15T20:43:22.693Z,22.87
2022-08-15T20:46:03.194Z,22.85
2022-08-15T20:48:44.838Z,22.83
2022-08-15T20:52:37.599Z,22.80
2022-08-15T20:54:40.929Z,22.81
2022-08-15T20:57:14.197Z,22.77
2022-08-15T21:01:12.042Z,22.72
2022-08-15T21:03:19.189Z,22.68
2022-08-15T21:06:00.998Z,22.66
2022-08-15T21:08:55.110Z,22.62
2022-08-15T21:11:50.750Z,22.57
2022-08-15T21:15:09.571Z,22.54
2022-08-15T21:17:32.521Z,22.45
2022-08-15T21:20:18.508Z,22.41
2022-08-15T21:23:00.480Z,22.40
2022-08-15T21:25:42.336Z,22.41
2022-08-15T21:28:10.085Z,22.41
2022-08-15T21:31:00.493Z,22.41
2022-08-15T21:33:57.681Z,22.39
2022-08-15T21:36:35.535Z,22.38
2022-08-15T21:39:24.862Z,22.39
2022-08-15T21:42:11.894Z,22.38
2022-08-15T21:44:43.727Z,22.36
2022-08-15T21:47:34.250Z,22.36
2022-08-15T21:50:25.987Z,22.34
2022-08-15T21:53:00.404Z,22.26
2022-08-15T21:55:36.408Z,22.28
2022-08-15T21:58:12.369Z,22.27
2022-08-15T22:00:44.863Z,22.20
2022-08-15T22:03:36.095Z,22.20
2022-08-15T22:06:23.653Z,22.14
2022-08-15T22:08:56.362Z,22.13
2022-08-15T22:11:48.317Z,22.11
2022-08-15T22:14:28.895Z,22.14
2022-08-15T22:17:01.783Z,22.13
2022-08-15T22:19:29.097Z,22.12
2022-08-15T22:22:08.443Z,22.10
2022-08-15T22:24:36.722Z,22.06
2022-08-15T22:27:04.869Z,21.99
2022-08-15T22:29:49.214Z,21.97
2022-08-15T22:32:30.871Z,22.00
2022-08-15T22:34:59.481Z,21.98
2022-08-15T22:37:34.555Z,21.95
2022-08-15T22:40:12.362Z,22.00
2022-08-15T22:42:52.216Z,22.01
2022-08-15T22:45:31.027Z,22.01
2022-08-15T22:48:19.218Z,22.01
2022-08-15T22:51:08.814Z,22.01
2022-08-15T22:53:38.178Z,22.00
2022-08-15T22:56:53.606Z,22.00
2022-08-15T22:58:55.167Z,21.88
2022-08-15T23:01:28.091Z,21.96
2022-08-15T23:04:12.490Z,21.91
2022-08-15T23:07:21.326Z,21.93
2022-08-15T23:10:05.139Z,21.90
2022-08-15T23:12:53.939Z,21.90
2022-08-15T23:15:35.180Z,21.89
2022-08-15T23:18:18.914Z,21.85
2022-08-15T23:20:49.453Z,21.81
2022-08-15T23:23:28.397Z,21.84
2022-08-15T23:25:57.401Z,21.81
2022-08-15T23:28:33.949Z,21.76
2022-08-15T23:31:09.533Z,21.72
2022-08-15T23:33:54.654Z,21.67
2022-08-15T23:37:02.095Z,21.62
2022-08-15T23:39:34.564Z,21.62
2022-08-15T23:42:27.617Z,21.60
2022-08-15T23:44:56.614Z,21.58
2022-08-15T23:47:27.544Z,21.58
2022-08-15T23:49:57.624Z,21.58
2022-08-15T23:52:29.660Z,21.58
2022-08-15T23:55:13.643Z,21.53
2022-08-15T23:57:43.221Z,21.50
